Time;durP1;ratioP1;P1;durP2;ratioP2;P2;SDS_P1;SDS_P2;PMS_P1;PMS_P2;Temp;Humidity;BMP_temperature;BMP_pressure;BME280_temperature;BME280_humidity;BME280_pressure;Samples;Min_cycle;Max_cycle;Signal;HPM_P1;HPM_P2
2024/03/18 00:00:15;;;;;;;7.97;6.60;;;;;;;10.82;72.61;96799.94;4953439;28;20055;-78
2024/03/18 00:02:43;;;;;;;10.90;7.25;;;;;;;10.83;73.22;96793.72;4953167;29;20055;-78
2024/03/18 00:05:12;;;;;;;11.45;6.93;;;;;;;10.80;70.47;96788.84;4953593;28;20062;-78
2024/03/18 00:07:39;;;;;;;8.07;6.70;;;;;;;10.79;72.12;96790.66;4953117;29;20542;-78
2024/03/18 00:10:09;;;;;;;9.13;7.05;;;;;;;10.83;74.02;96791.13;4953364;28;20434;-78
2024/03/18 00:12:36;;;;;;;8.98;7.47;;;;;;;10.90;74.79;96792.03;4953156;29;20054;-78
2024/03/18 00:15:03;;;;;;;8.88;6.80;;;;;;;10.95;74.93;96784.47;4953043;29;20322;-78
2024/03/18 00:17:31;;;;;;;10.90;7.13;;;;;;;10.94;74.04;96788.06;4953500;29;20073;-78
2024/03/18 00:19:58;;;;;;;9.13;7.00;;;;;;;10.93;73.67;96791.66;4953318;28;20051;-78
2024/03/18 00:22:25;;;;;;;10.07;6.90;;;;;;;10.89;73.08;96785.19;4953352;28;20102;-78
2024/03/18 00:24:51;;;;;;;9.60;6.75;;;;;;;10.86;72.02;96786.34;4953045;29;20059;-78
2024/03/18 00:27:18;;;;;;;6.65;5.90;;;;;;;10.84;72.34;96780.47;4952862;28;20062;-78
2024/03/18 00:29:45;;;;;;;10.80;6.05;;;;;;;10.82;70.81;96779.88;4952904;28;20692;-78
2024/03/18 00:32:12;;;;;;;5.68;5.00;;;;;;;10.78;71.37;96773.41;4952726;28;20084;-78
2024/03/18 00:34:40;;;;;;;12.90;5.63;;;;;;;10.74;70.08;96768.72;4952830;28;20059;-78
2024/03/18 00:37:06;;;;;;;6.68;5.57;;;;;;;10.70;69.32;96771.66;4952973;29;20059;-78
2024/03/18 00:39:33;;;;;;;9.48;5.97;;;;;;;10.66;69.25;96764.38;4952968;29;20051;-78
2024/03/18 00:42:00;;;;;;;5.22;4.70;;;;;;;10.65;69.25;96760.16;4952843;28;20055;-77
2024/03/18 00:44:26;;;;;;;6.90;5.32;;;;;;;10.66;69.60;96759.16;4952835;29;20070;-77
2024/03/18 00:46:55;;;;;;;8.20;4.78;;;;;;;10.65;68.84;96760.16;4952796;29;20062;-77
2024/03/18 00:49:21;;;;;;;10.23;5.47;;;;;;;10.62;68.64;96752.66;4953079;29;20055;-77
2024/03/18 00:51:49;;;;;;;6.80;5.55;;;;;;;10.56;68.36;96755.97;4952814;28;20496;-78
2024/03/18 00:54:16;;;;;;;7.40;5.10;;;;;;;10.50;68.40;96745.28;4952513;28;20059;-77
2024/03/18 00:56:42;;;;;;;9.18;6.03;;;;;;;10.44;68.47;96745.19;4952773;29;20574;-77
2024/03/18 00:59:09;;;;;;;8.13;6.07;;;;;;;10.41;68.68;96746.34;4952692;28;20059;-77
2024/03/18 01:01:37;;;;;;;6.78;5.90;;;;;;;10.37;68.56;96742.47;4952780;28;20059;-77
2024/03/18 01:04:04;;;;;;;7.47;4.95;;;;;;;10.34;68.61;96739.41;4952474;29;20067;-77
2024/03/18 01:06:31;;;;;;;7.32;5.68;;;;;;;10.33;68.74;96729.97;4952723;28;20062;-77
2024/03/18 01:08:59;;;;;;;9.68;6.47;;;;;;;10.29;68.61;96732.91;4952577;29;20523;-78
2024/03/18 01:11:25;;;;;;;7.35;6.20;;;;;;;10.28;68.86;96733.06;4952900;28;20055;-78
2024/03/18 01:13:52;;;;;;;8.93;6.93;;;;;;;10.23;68.86;96733.59;4952373;29;20058;-78
2024/03/18 01:16:20;;;;;;;8.18;6.50;;;;;;;10.21;69.25;96737.34;4952497;29;20055;-77
2024/03/18 01:18:48;;;;;;;6.80;5.93;;;;;;;10.19;69.18;96740.16;4952851;29;20060;-77
2024/03/18 01:21:15;;;;;;;10.43;6.10;;;;;;;10.20;69.88;96736.53;4952195;28;20520;-77
2024/03/18 01:23:41;;;;;;;8.18;6.10;;;;;;;10.23;69.78;96738.00;4952778;29;20074;-77
2024/03/18 01:26:09;;;;;;;8.10;5.72;;;;;;;10.27;71.44;96734.84;4952091;29;20499;-77
2024/03/18 01:28:36;;;;;;;7.40;5.43;;;;;;;10.30;70.88;96733.75;4952303;28;20507;-77
2024/03/18 01:31:04;;;;;;;8.40;6.93;;;;;;;10.29;70.03;96727.69;4952465;28;20051;-77
2024/03/18 01:33:31;;;;;;;8.48;5.57;;;;;;;10.30;70.01;96725.91;4952486;29;20055;-77
2024/03/18 01:35:58;;;;;;;11.00;6.50;;;;;;;10.29;69.94;96721.69;4952366;28;20118;-78
2024/03/18 01:38:25;;;;;;;9.45;7.47;;;;;;;10.29;69.69;96725.09;4952387;29;20067;-77
2024/03/18 01:40:52;;;;;;;12.20;7.53;;;;;;;10.28;69.78;96714.81;4952423;28;20060;-77
2024/03/18 01:43:20;;;;;;;8.10;6.40;;;;;;;10.26;69.95;96711.59;4955904;29;20051;-77
2024/03/18 01:45:47;;;;;;;10.75;6.82;;;;;;;10.22;69.86;96705.91;4955984;29;20423;-78
2024/03/18 01:48:14;;;;;;;8.70;6.35;;;;;;;10.21;69.89;96712.13;4956316;28;20062;-77
2024/03/18 01:50:42;;;;;;;7.40;6.20;;;;;;;10.20;70.35;96715.69;4955685;28;20063;-77
2024/03/18 01:53:10;;;;;;;7.78;6.03;;;;;;;10.21;70.45;96717.31;4955913;29;20062;-77
2024/03/18 01:55:37;;;;;;;8.10;6.40;;;;;;;10.21;70.36;96714.72;4955316;28;20533;-78
2024/03/18 01:58:04;;;;;;;7.55;6.00;;;;;;;10.27;71.62;96705.38;4955756;28;20062;-77
2024/03/18 02:00:35;;;;;;;10.15;6.50;;;;;;;10.29;70.79;96698.22;4955918;28;20066;-78
2024/03/18 02:03:03;;;;;;;8.38;7.13;;;;;;;10.29;70.75;96701.63;4955590;29;20051;-77
2024/03/18 02:05:30;;;;;;;6.80;5.57;;;;;;;10.29;70.58;96700.81;4955439;29;20337;-77
2024/03/18 02:07:57;;;;;;;9.02;6.75;;;;;;;10.31;70.57;96698.84;4955412;28;20074;-77
2024/03/18 02:10:24;;;;;;;7.45;6.13;;;;;;;10.28;70.12;96701.78;4955643;28;20058;-77
2024/03/18 02:12:52;;;;;;;9.40;6.43;;;;;;;10.25;70.30;96694.31;4955605;28;20066;-77
2024/03/18 02:15:21;;;;;;;9.23;6.70;;;;;;;10.25;70.61;96697.72;4955805;28;20062;-77
2024/03/18 02:17:50;;;;;;;11.02;8.23;;;;;;;10.26;70.06;96686.31;4955113;28;20189;-78
2024/03/18 02:20:17;;;;;;;9.93;7.30;;;;;;;10.24;70.00;96688.28;4955454;28;20055;-77
2024/03/18 02:22:45;;;;;;;12.43;7.68;;;;;;;10.20;70.21;96675.78;4955479;28;20423;-77
2024/03/18 02:25:12;;;;;;;14.73;8.65;;;;;;;10.17;70.20;96669.13;4955518;29;20074;-77
2024/03/18 02:27:39;;;;;;;12.27;7.50;;;;;;;10.14;70.20;96666.88;4955387;29;20063;-77
2024/03/18 02:30:08;;;;;;;11.18;7.90;;;;;;;10.07;70.35;96658.94;4970796;28;20066;-78
2024/03/18 02:32:36;;;;;;;10.32;7.07;;;;;;;10.04;70.43;96661.13;4977901;28;20055;-78
2024/03/18 02:35:05;;;;;;;9.00;7.00;;;;;;;10.00;70.73;96662.44;4977756;29;20376;-77
2024/03/18 02:37:32;;;;;;;9.52;7.18;;;;;;;9.99;70.59;96653.00;4957876;29;20052;-78
2024/03/18 02:40:00;;;;;;;10.10;6.97;;;;;;;10.00;70.99;96659.84;4957250;28;20106;-78
2024/03/18 02:42:26;;;;;;;8.73;6.40;;;;;;;10.02;70.83;96650.84;4955919;29;20436;-76
2024/03/18 02:44:52;;;;;;;11.23;6.18;;;;;;;10.01;70.53;96646.63;4955451;28;20091;-77
2024/03/18 02:47:19;;;;;;;8.75;6.10;;;;;;;9.99;70.70;96643.41;4955260;29;20055;-76
2024/03/18 02:49:46;;;;;;;7.13;6.20;;;;;;;9.98;70.69;96635.75;4955204;29;20055;-76
2024/03/18 02:52:12;;;;;;;8.10;5.68;;;;;;;9.94;70.74;96629.28;4954985;28;20059;-76
2024/03/18 02:54:39;;;;;;;7.45;5.80;;;;;;;9.89;70.74;96629.81;4954072;29;20062;-75
2024/03/18 02:57:07;;;;;;;10.20;6.22;;;;;;;9.84;71.06;96622.53;4954474;29;20059;-76
2024/03/18 02:59:33;;;;;;;6.72;6.03;;;;;;;9.83;71.38;96628.69;4954849;29;20082;-76
2024/03/18 03:02:00;;;;;;;9.75;6.20;;;;;;;9.81;71.30;96625.47;4954399;28;20055;-77
2024/03/18 03:04:26;;;;;;;8.00;6.18;;;;;;;9.81;71.51;96624.66;4954652;29;20048;-76
2024/03/18 03:06:53;;;;;;;5.70;5.10;;;;;;;9.84;72.38;96619.91;4954391;29;20058;-76
2024/03/18 03:09:20;;;;;;;8.25;6.10;;;;;;;9.83;71.84;96620.88;4954689;29;20106;-76
2024/03/18 03:11:47;;;;;;;10.05;5.75;;;;;;;9.80;71.51;96623.84;4956090;28;20122;-77
2024/03/18 03:14:15;;;;;;;9.85;5.57;;;;;;;9.77;71.72;96618.97;4959931;29;20062;-77
2024/03/18 03:16:42;;;;;;;7.55;5.43;;;;;;;9.76;71.81;96616.56;4959764;29;20063;-76
2024/03/18 03:19:09;;;;;;;8.38;6.38;;;;;;;9.76;71.85;96621.78;4955171;29;20055;-76
2024/03/18 03:21:36;;;;;;;8.48;5.63;;;;;;;9.73;71.89;96612.53;4954155;28;20059;-76
2024/03/18 03:24:03;;;;;;;8.00;5.28;;;;;;;9.72;72.41;96615.31;4954506;29;20051;-76
2024/03/18 03:26:30;;;;;;;7.63;4.97;;;;;;;9.71;72.66;96614.50;4954325;29;20059;-76
2024/03/18 03:28:57;;;;;;;7.78;5.13;;;;;;;9.75;72.40;96620.16;4954029;29;20586;-76
2024/03/18 03:31:24;;;;;;;7.15;5.22;;;;;;;9.73;72.24;96617.75;4968918;28;20065;-76
2024/03/18 03:33:52;;;;;;;7.13;4.85;;;;;;;9.73;72.42;96612.53;4975986;29;20323;-76
2024/03/18 03:36:19;;;;;;;7.10;4.90;;;;;;;9.75;72.58;96610.56;4975141;29;20054;-77
2024/03/18 03:38:46;;;;;;;8.27;5.30;;;;;;;9.77;72.54;96616.38;4963458;29;20058;-76
2024/03/18 03:41:12;;;;;;;6.35;4.97;;;;;;;9.81;74.28;96607.22;4954120;28;20070;-76
2024/03/18 03:43:39;;;;;;;7.28;5.82;;;;;;;9.88;73.38;96610.75;4954263;29;20047;-76
2024/03/18 03:46:07;;;;;;;9.25;6.32;;;;;;;9.89;73.38;96609.75;4953794;28;20424;-75
2024/03/18 03:48:35;;;;;;;7.72;5.70;;;;;;;9.97;76.09;96608.91;4954040;28;20121;-76
2024/03/18 03:51:02;;;;;;;8.05;6.03;;;;;;;10.01;74.03;96606.72;4953672;28;20055;-76
2024/03/18 03:53:27;;;;;;;8.00;6.18;;;;;;;10.00;73.52;96605.13;4953798;28;20059;-76
2024/03/18 03:55:57;;;;;;;7.20;6.43;;;;;;;10.01;76.29;96610.13;4953460;28;20489;-76
2024/03/18 03:58:24;;;;;;;9.07;6.75;;;;;;;10.02;75.06;96600.53;4953952;28;20544;-76
2024/03/18 04:00:52;;;;;;;7.57;6.35;;;;;;;10.03;75.52;96600.34;4953598;28;20062;-76
2024/03/18 04:03:22;;;;;;;8.18;6.25;;;;;;;10.03;74.87;96600.34;4953688;28;20066;-76
2024/03/18 04:05:51;;;;;;;8.15;6.47;;;;;;;10.08;76.48;96598.03;4953008;28;20109;-77
2024/03/18 04:08:18;;;;;;;8.02;5.60;;;;;;;10.14;75.66;96599.09;4953487;29;20055;-76
2024/03/18 04:10:44;;;;;;;7.13;5.60;;;;;;;10.17;76.13;96598.75;4953149;28;20136;-76
2024/03/18 04:13:11;;;;;;;7.00;5.50;;;;;;;10.18;75.73;96600.34;4953302;29;20058;-76
2024/03/18 04:15:37;;;;;;;7.05;5.65;;;;;;;10.24;77.98;96594.44;4953324;28;20051;-76
2024/03/18 04:18:06;;;;;;;8.25;5.90;;;;;;;10.32;78.85;96596.19;4953212;29;20062;-76
2024/03/18 04:20:34;;;;;;;7.80;6.60;;;;;;;10.39;79.24;96585.84;4953506;28;20110;-76
2024/03/18 04:23:04;;;;;;;9.23;7.20;;;;;;;10.44;78.45;96588.72;4953110;28;20530;-76
2024/03/18 04:25:33;;;;;;;9.20;7.18;;;;;;;10.42;76.84;96578.44;4953094;29;20055;-76
2024/03/18 04:28:02;;;;;;;8.30;6.50;;;;;;;10.41;77.86;96589.09;4953389;29;20082;-76
2024/03/18 04:30:30;;;;;;;9.80;7.00;;;;;;;10.44;79.01;96588.72;4952959;28;20504;-76
2024/03/18 04:32:57;;;;;;;8.05;6.65;;;;;;;10.49;79.17;96586.34;4953067;28;20044;-76
2024/03/18 04:35:23;;;;;;;8.95;6.80;;;;;;;10.50;79.15;96590.59;4952985;28;20062;-76
2024/03/18 04:37:54;;;;;;;10.85;7.53;;;;;;;10.52;78.80;96581.59;4952970;29;20336;-76
2024/03/18 04:40:23;;;;;;;7.65;6.80;;;;;;;10.51;78.44;96573.94;4952898;28;20066;-76
2024/03/18 04:42:50;;;;;;;8.45;5.95;;;;;;;10.48;77.83;96574.31;4953153;29;20409;-76
2024/03/18 04:45:20;;;;;;;7.80;6.32;;;;;;;10.48;78.86;96574.31;4952559;29;20511;-76
2024/03/18 04:47:49;;;;;;;6.95;6.00;;;;;;;10.44;76.85;96567.84;4952990;29;20530;-76
2024/03/18 04:50:17;;;;;;;7.10;6.40;;;;;;;10.40;77.73;96564.78;4952675;28;20066;-76
2024/03/18 04:52:44;;;;;;;8.35;6.65;;;;;;;10.44;78.81;96560.03;4952997;28;20074;-77
2024/03/18 04:55:11;;;;;;;8.40;6.43;;;;;;;10.47;79.64;96557.88;4953041;29;20062;-76
2024/03/18 04:57:40;;;;;;;8.52;6.53;;;;;;;10.50;79.76;96556.69;4952558;29;20051;-77
2024/03/18 05:00:09;;;;;;;6.93;6.18;;;;;;;10.52;79.92;96552.13;4952896;28;20412;-76
2024/03/18 05:02:37;;;;;;;9.32;6.32;;;;;;;10.45;77.34;96553.81;4952914;28;20423;-76
2024/03/18 05:05:04;;;;;;;7.00;6.30;;;;;;;10.44;79.02;96558.22;4954310;29;20110;-76
2024/03/18 05:07:31;;;;;;;7.18;6.32;;;;;;;10.49;80.01;96555.06;4953389;28;20066;-76
2024/03/18 05:09:58;;;;;;;8.82;7.32;;;;;;;10.48;78.01;96562.09;4953666;28;20062;-78
2024/03/18 05:12:25;;;;;;;8.32;6.22;;;;;;;10.40;76.33;96558.78;4952856;29;20087;-76
2024/03/18 05:14:53;;;;;;;7.65;6.45;;;;;;;10.39;78.92;96562.38;4952421;28;20578;-77
2024/03/18 05:17:20;;;;;;;8.73;6.78;;;;;;;10.42;78.49;96560.19;4954317;28;20059;-76
2024/03/18 05:19:46;;;;;;;9.13;6.80;;;;;;;10.41;78.68;96555.19;4956333;29;20051;-76
2024/03/18 05:22:14;;;;;;;7.50;6.57;;;;;;;10.40;78.80;96558.78;4956110;28;20069;-76
2024/03/18 05:24:43;;;;;;;8.63;7.32;;;;;;;10.40;78.43;96551.75;4956236;29;20062;-77
2024/03/18 05:27:10;;;;;;;11.02;7.38;;;;;;;10.43;79.52;96551.41;4966785;28;20062;-77
2024/03/18 05:29:37;;;;;;;11.05;7.55;;;;;;;10.48;79.93;96553.47;4956910;28;20051;-76
2024/03/18 05:32:08;;;;;;;7.93;6.53;;;;;;;10.51;80.58;96550.47;4956924;28;20059;-76
2024/03/18 05:34:34;;;;;;;7.50;6.72;;;;;;;10.48;79.34;96550.84;4954515;28;20055;-77
2024/03/18 05:37:02;;;;;;;8.30;7.45;;;;;;;10.44;78.97;96552.19;4965820;28;20070;-75
2024/03/18 05:39:28;;;;;;;8.82;6.20;;;;;;;10.42;78.69;96543.75;4964680;28;20450;-76
2024/03/18 05:41:55;;;;;;;14.30;9.82;;;;;;;10.40;77.55;96545.72;4963369;28;20066;-76
2024/03/18 05:44:21;;;;;;;14.27;10.77;;;;;;;10.36;76.51;96544.47;4959531;28;20055;-76
2024/03/18 05:46:48;;;;;;;10.52;8.98;;;;;;;10.38;78.82;96539.88;4955841;28;20503;-76
2024/03/18 05:49:16;;;;;;;17.60;13.23;;;;;;;10.46;78.76;96542.41;4956060;28;20051;-79
2024/03/18 05:51:43;;;;;;;17.33;12.48;;;;;;;10.46;76.66;96542.41;4962186;28;20506;-79
2024/03/18 05:54:09;;;;;;;19.15;13.45;;;;;;;10.43;76.95;96540.13;4975043;28;20054;-79
2024/03/18 05:56:36;;;;;;;16.33;12.10;;;;;;;10.42;77.25;96541.16;4975080;28;20503;-77
2024/03/18 05:59:03;;;;;;;13.15;10.82;;;;;;;10.40;76.28;96543.91;4971848;28;20464;-77
2024/03/18 06:01:30;;;;;;;14.10;11.05;;;;;;;10.37;75.78;96536.47;4955704;29;20435;-77
2024/03/18 06:03:57;;;;;;;15.93;9.50;;;;;;;10.36;75.80;96541.88;4965965;28;20450;-78
2024/03/18 06:06:25;;;;;;;10.70;7.32;;;;;;;10.35;75.81;96540.25;4959135;28;20554;-77
2024/03/18 06:08:50;;;;;;;12.27;7.93;;;;;;;10.30;75.34;96536.41;4954183;28;20651;-78
2024/03/18 06:11:17;;;;;;;11.45;7.35;;;;;;;10.26;75.61;96524.69;4955219;28;20059;-78
2024/03/18 06:13:44;;;;;;;8.98;6.68;;;;;;;10.26;76.53;96540.31;4955394;29;20055;-78
2024/03/18 06:16:10;;;;;;;8.20;6.63;;;;;;;10.29;78.02;96534.75;4955352;28;20066;-78
2024/03/18 06:18:37;;;;;;;9.20;7.30;;;;;;;10.37;79.73;96544.28;4955528;29;20055;-78
2024/03/18 06:21:06;;;;;;;12.45;8.30;;;;;;;10.40;78.17;96546.53;4955308;29;20071;-78
2024/03/18 06:23:34;;;;;;;8.68;7.55;;;;;;;10.42;78.96;96544.56;4956675;28;20068;-78
2024/03/18 06:25:59;;;;;;;11.20;7.28;;;;;;;10.43;77.88;96540.13;4955401;29;20503;-78
2024/03/18 06:28:28;;;;;;;11.07;8.10;;;;;;;10.35;76.20;96537.66;4954950;28;20106;-78
2024/03/18 06:30:55;;;;;;;12.77;7.57;;;;;;;10.34;79.08;96541.22;4955307;29;20055;-78
2024/03/18 06:33:23;;;;;;;13.50;8.32;;;;;;;10.38;79.13;96542.50;4955240;29;20077;-78
2024/03/18 06:35:50;;;;;;;12.93;7.90;;;;;;;10.42;80.49;96536.72;4954913;29;20180;-78
2024/03/18 06:38:16;;;;;;;12.68;7.97;;;;;;;10.51;80.80;96537.44;4979265;28;20057;-78
2024/03/18 06:40:45;;;;;;;18.25;8.00;;;;;;;10.57;80.90;96538.53;4965867;29;20055;-78
2024/03/18 06:43:11;;;;;;;9.52;7.25;;;;;;;10.62;80.92;96536.97;4969166;29;20063;-78
2024/03/18 06:45:38;;;;;;;10.20;7.90;;;;;;;10.67;80.83;96536.41;4970555;29;20059;-77
2024/03/18 06:48:05;;;;;;;9.35;7.85;;;;;;;10.71;81.03;96541.09;4970212;28;20063;-78
2024/03/18 06:50:36;;;;;;;13.00;7.93;;;;;;;10.68;77.13;96538.03;4963955;28;20063;-78
2024/03/18 06:53:03;;;;;;;11.57;7.15;;;;;;;10.59;76.29;96537.34;4959496;29;20066;-77
2024/03/18 06:55:30;;;;;;;10.20;7.25;;;;;;;10.58;78.39;96537.50;4956606;29;20055;-77
2024/03/18 06:57:58;;;;;;;10.63;7.88;;;;;;;10.63;80.19;96535.19;4955099;28;20523;-77
2024/03/18 07:00:25;;;;;;;12.20;8.30;;;;;;;10.69;80.30;96524.00;4955671;29;20066;-77
2024/03/18 07:02:52;;;;;;;11.27;8.68;;;;;;;10.72;79.61;96534.06;4954737;29;20059;-77
2024/03/18 07:05:19;;;;;;;10.95;8.65;;;;;;;10.72;79.70;96534.88;4959788;29;20648;-77
2024/03/18 07:07:46;;;;;;;9.30;8.07;;;;;;;10.76;80.55;96535.31;4954968;28;20058;-77
2024/03/18 07:10:14;;;;;;;12.90;9.23;;;;;;;10.80;80.17;96530.53;4955397;29;20055;-77
2024/03/18 07:12:41;;;;;;;12.32;8.38;;;;;;;10.77;78.60;96536.13;4954772;28;20059;-77
2024/03/18 07:15:11;;;;;;;13.73;10.23;;;;;;;10.65;75.72;96539.22;4954623;28;20074;-78
2024/03/18 07:17:38;;;;;;;12.98;9.20;;;;;;;10.61;77.97;96540.56;4957098;28;20051;-77
2024/03/18 07:20:06;;;;;;;13.05;10.65;;;;;;;10.67;79.85;96545.06;4954714;28;20087;-80
2024/03/18 07:22:33;;;;;;;11.73;9.73;;;;;;;10.74;80.41;96542.53;4954728;29;20048;-77
2024/03/18 07:25:00;;;;;;;11.70;9.43;;;;;;;10.79;80.43;96531.53;4954480;29;20047;-77
2024/03/18 07:27:28;;;;;;;12.70;9.25;;;;;;;10.84;80.10;96537.81;4954177;29;20066;-77
2024/03/18 07:29:55;;;;;;;10.38;8.45;;;;;;;10.86;79.81;96533.22;4954350;28;20065;-77
2024/03/18 07:32:24;;;;;;;11.48;8.85;;;;;;;10.90;80.24;96534.47;4954705;28;20055;-77
2024/03/18 07:34:51;;;;;;;11.25;8.75;;;;;;;10.95;80.35;96539.13;4954258;28;20051;-77
2024/03/18 07:37:18;;;;;;;10.68;8.18;;;;;;;10.98;80.54;96533.53;4959521;29;20068;-78
2024/03/18 07:39:45;;;;;;;9.93;7.50;;;;;;;11.00;80.23;96536.78;4967747;28;20063;-78
2024/03/18 07:42:12;;;;;;;10.05;8.27;;;;;;;11.02;80.51;96531.34;4985142;28;20063;-78
2024/03/18 07:44:39;;;;;;;15.20;8.70;;;;;;;11.04;80.58;96532.81;4956274;29;20055;-77
2024/03/18 07:47:06;;;;;;;11.50;8.15;;;;;;;11.06;79.88;96535.22;4954206;28;20051;-78
2024/03/18 07:49:34;;;;;;;9.82;8.15;;;;;;;11.07;77.90;96531.63;4954578;29;20059;-77
2024/03/18 07:52:01;;;;;;;11.52;7.95;;;;;;;11.00;76.66;96528.94;4954339;28;20059;-77
2024/03/18 07:54:29;;;;;;;12.73;7.93;;;;;;;10.88;76.04;96528.63;4953822;29;20499;-77
2024/03/18 07:56:56;;;;;;;7.95;6.93;;;;;;;10.83;78.02;96524.97;4954150;29;20062;-77
2024/03/18 07:59:22;;;;;;;8.45;6.95;;;;;;;10.82;77.55;96531.16;4954351;29;20175;-77
2024/03/18 08:01:49;;;;;;;10.88;8.23;;;;;;;10.80;76.84;96525.31;4953971;29;20062;-77
2024/03/18 08:04:16;;;;;;;9.90;8.15;;;;;;;10.81;79.33;96532.16;4953860;29;20423;-78
2024/03/18 08:06:46;;;;;;;10.65;8.45;;;;;;;10.89;80.89;96529.44;4953602;29;20058;-77
2024/03/18 08:09:14;;;;;;;10.40;8.00;;;;;;;10.95;80.46;96523.47;4953899;29;20062;-77
2024/03/18 08:11:41;;;;;;;10.13;8.13;;;;;;;10.98;79.33;96528.31;4953523;29;20118;-78
2024/03/18 08:14:08;;;;;;;8.48;7.45;;;;;;;10.97;79.74;96515.47;4953488;29;20059;-77
2024/03/18 08:16:34;;;;;;;12.30;7.82;;;;;;;10.95;77.78;96518.25;4953423;28;20059;-77
2024/03/18 08:19:03;;;;;;;8.07;6.90;;;;;;;10.97;79.06;96512.84;4975495;28;20086;-77
2024/03/18 08:21:29;;;;;;;8.27;7.38;;;;;;;11.01;79.93;96516.69;4975362;28;20043;-77
2024/03/18 08:23:57;;;;;;;12.05;7.90;;;;;;;11.05;81.04;96510.91;4973887;29;20063;-77
2024/03/18 08:26:24;;;;;;;10.48;7.85;;;;;;;11.09;78.91;96511.38;4957993;28;20051;-77
2024/03/18 08:28:51;;;;;;;11.77;8.35;;;;;;;11.10;80.03;96516.38;4954110;29;20053;-77
2024/03/18 08:31:18;;;;;;;11.10;7.63;;;;;;;11.16;80.32;96522.66;4953724;29;20071;-77
2024/03/18 08:33:44;;;;;;;10.00;7.22;;;;;;;11.20;80.14;96520.50;4953836;29;20107;-77
2024/03/18 08:36:12;;;;;;;12.77;8.23;;;;;;;11.24;80.70;96521.72;4955490;29;20055;-77
2024/03/18 08:38:39;;;;;;;11.88;8.52;;;;;;;11.27;79.69;96527.38;4953704;28;20055;-77
2024/03/18 08:41:08;;;;;;;11.23;8.23;;;;;;;11.30;79.55;96526.19;4953528;28;20063;-77
2024/03/18 08:43:34;;;;;;;12.27;7.75;;;;;;;11.33;79.48;96520.63;4953487;28;20582;-77
2024/03/18 08:46:06;;;;;;;12.10;8.73;;;;;;;11.33;79.01;96521.41;4953625;29;20467;-77
2024/03/18 08:48:32;;;;;;;7.88;7.07;;;;;;;11.33;79.81;96523.22;4953744;29;20062;-78
2024/03/18 08:50:59;;;;;;;9.60;7.63;;;;;;;11.35;80.28;96518.63;4954866;28;20439;-77
2024/03/18 08:53:26;;;;;;;10.30;7.60;;;;;;;11.39;79.50;96514.63;4957433;29;20408;-78
2024/03/18 08:55:52;;;;;;;10.73;8.13;;;;;;;11.43;79.57;96512.44;4958126;29;20449;-78
2024/03/18 08:58:21;;;;;;;10.15;7.88;;;;;;;11.45;80.41;96516.47;4957543;29;20071;-77
2024/03/18 09:00:47;;;;;;;10.45;7.78;;;;;;;11.48;79.93;96515.31;4957016;28;20445;-77
2024/03/18 09:03:14;;;;;;;12.38;8.68;;;;;;;11.51;80.42;96517.53;4957148;28;20138;-78
2024/03/18 09:05:40;;;;;;;11.75;8.05;;;;;;;11.53;80.53;96518.97;4957533;28;20051;-77
2024/03/18 09:08:07;;;;;;;8.77;7.60;;;;;;;11.58;80.40;96522.81;4957069;28;20066;-78
2024/03/18 09:10:34;;;;;;;10.38;7.47;;;;;;;11.58;79.57;96521.00;4956697;29;20062;-78
2024/03/18 09:13:02;;;;;;;10.75;8.43;;;;;;;11.54;79.06;96515.38;4956918;28;20051;-78
2024/03/18 09:15:29;;;;;;;10.43;7.43;;;;;;;11.53;79.38;96516.34;4956187;28;20051;-78
2024/03/18 09:17:56;;;;;;;11.93;8.65;;;;;;;11.57;79.39;96516.78;4956463;29;20058;-77
2024/03/18 09:20:23;;;;;;;11.60;7.45;;;;;;;11.60;78.41;96515.59;4956547;28;20062;-77
2024/03/18 09:22:50;;;;;;;12.90;7.28;;;;;;;11.57;76.94;96521.19;4956406;28;20055;-78
2024/03/18 09:25:16;;;;;;;17.48;8.77;;;;;;;11.52;76.17;96525.19;4956954;28;20051;-78
2024/03/18 09:27:43;;;;;;;8.88;7.10;;;;;;;11.54;78.13;96528.44;4957059;29;20055;-78
2024/03/18 09:30:10;;;;;;;11.55;7.55;;;;;;;11.58;77.62;96528.03;4956686;29;20055;-78
2024/03/18 09:32:38;;;;;;;10.43;8.18;;;;;;;11.57;76.28;96526.41;4956987;28;20106;-78
2024/03/18 09:35:07;;;;;;;11.48;8.20;;;;;;;11.53;75.82;96523.38;4956102;28;20051;-78
2024/03/18 09:37:33;;;;;;;8.73;7.53;;;;;;;11.53;77.20;96526.78;4956300;29;20260;-78
2024/03/18 09:40:00;;;;;;;10.85;8.30;;;;;;;11.55;76.65;96519.56;4956092;28;20062;-78
2024/03/18 09:42:28;;;;;;;11.38;8.35;;;;;;;11.55;76.75;96530.03;4956201;29;20063;-78
2024/03/18 09:44:55;;;;;;;13.18;7.85;;;;;;;11.57;77.80;96521.19;4956199;29;20054;-77
2024/03/18 09:47:23;;;;;;;9.00;7.32;;;;;;;11.60;77.88;96521.63;4956375;29;20051;-78
2024/03/18 09:49:54;;;;;;;9.55;7.78;;;;;;;11.64;79.38;96524.66;4955789;29;20059;-77
2024/03/18 09:52:22;;;;;;;10.00;7.68;;;;;;;11.67;79.36;96526.88;4956498;29;20419;-78
2024/03/18 09:54:50;;;;;;;9.23;6.43;;;;;;;11.72;80.29;96534.97;4955904;28;20055;-78
2024/03/18 09:57:23;;;;;;;11.38;6.93;;;;;;;11.78;79.49;96534.19;4955934;29;20067;-77
2024/03/18 09:59:51;;;;;;;7.68;5.57;;;;;;;11.81;78.85;96533.03;4972100;28;20059;-78
2024/03/18 10:02:18;;;;;;;8.18;5.45;;;;;;;11.81;78.29;96544.28;4955135;28;20066;-78
2024/03/18 10:04:45;;;;;;;6.43;4.65;;;;;;;11.81;78.63;96544.28;4955606;28;20066;-77
2024/03/18 10:07:14;;;;;;;7.82;5.18;;;;;;;11.80;78.70;96542.66;4955723;29;20086;-77
2024/03/18 10:09:44;;;;;;;6.25;4.70;;;;;;;11.81;78.75;96552.13;4974095;28;20460;-78
2024/03/18 10:12:13;;;;;;;6.15;4.57;;;;;;;11.85;78.40;96542.09;4973791;29;20055;-78
2024/03/18 10:14:39;;;;;;;8.35;4.38;;;;;;;11.88;78.77;96549.59;4977408;28;20435;-77
2024/03/18 10:17:07;;;;;;;10.02;4.20;;;;;;;11.91;78.18;96554.44;4956230;28;20456;-77
2024/03/18 10:19:34;;;;;;;9.48;3.70;;;;;;;11.89;77.46;96552.00;4956080;28;20062;-77
2024/03/18 10:22:04;;;;;;;6.13;3.15;;;;;;;11.84;77.98;96556.97;4955701;28;20118;-78
2024/03/18 10:24:32;;;;;;;9.82;3.50;;;;;;;11.83;78.22;96560.59;4955412;28;20055;-78
2024/03/18 10:26:58;;;;;;;6.00;2.97;;;;;;;11.82;78.63;96555.53;4955268;29;20062;-78
2024/03/18 10:29:25;;;;;;;7.40;3.50;;;;;;;11.82;78.62;96551.13;4955276;29;20507;-77
2024/03/18 10:31:52;;;;;;;8.30;3.78;;;;;;;11.79;78.45;96551.50;4955379;29;20055;-77
2024/03/18 10:34:21;;;;;;;6.22;3.45;;;;;;;11.74;78.63;96565.16;4955560;29;20114;-78
2024/03/18 10:36:51;;;;;;;8.35;4.35;;;;;;;11.73;78.97;96555.69;4955021;28;20467;-78
2024/03/18 10:39:29;;;;;;;8.85;4.72;;;;;;;11.73;78.58;96560.09;4955669;29;20059;-78
2024/03/18 10:42:03;;;;;;;9.27;4.18;;;;;;;11.71;79.52;96556.88;4955689;29;20447;-78
2024/03/18 10:44:38;;;;;;;5.60;4.10;;;;;;;11.71;80.04;96564.72;4955258;29;20467;-78
2024/03/18 10:47:06;;;;;;;6.53;4.20;;;;;;;11.72;79.75;96561.13;4955610;29;20055;-78
2024/03/18 10:49:33;;;;;;;11.60;4.63;;;;;;;11.75;79.59;96560.72;4971749;28;20083;-77
2024/03/18 10:52:03;;;;;;;5.85;3.55;;;;;;;11.79;79.96;96561.97;4955565;29;20047;-77
2024/03/18 10:54:30;;;;;;;6.65;4.28;;;;;;;11.79;79.20;96567.19;4955392;29;20475;-78
2024/03/18 10:56:58;;;;;;;8.68;4.05;;;;;;;11.78;79.43;96554.31;4955042;29;20051;-78
2024/03/18 10:59:25;;;;;;;9.05;4.07;;;;;;;11.77;79.68;96561.34;4955170;29;20062;-77
2024/03/18 11:01:52;;;;;;;7.13;4.18;;;;;;;11.79;80.17;96559.34;4955070;28;20051;-77
2024/03/18 11:04:20;;;;;;;4.55;3.90;;;;;;;11.82;80.44;96556.34;4954977;28;20051;-78
2024/03/18 11:06:48;;;;;;;6.10;3.70;;;;;;;11.87;80.77;96566.22;4954793;28;20067;-77
2024/03/18 11:09:17;;;;;;;9.40;4.32;;;;;;;11.87;79.95;96568.84;4970844;28;20113;-77
2024/03/18 11:11:44;;;;;;;9.10;5.10;;;;;;;11.88;79.70;96568.69;4954769;29;20055;-77
2024/03/18 11:14:12;;;;;;;8.35;4.60;;;;;;;11.90;79.24;96565.91;4954746;28;20062;-78
2024/03/18 11:16:43;;;;;;;5.72;3.80;;;;;;;11.89;80.41;96567.69;4958223;28;20075;-78
2024/03/18 11:19:17;;;;;;;6.03;4.03;;;;;;;11.92;80.40;96571.75;4959736;29;20478;-78
2024/03/18 11:21:43;;;;;;;5.70;3.95;;;;;;;11.93;80.05;96568.91;4958855;29;20134;-78
2024/03/18 11:24:23;;;;;;;5.15;4.05;;;;;;;11.95;78.98;96569.53;4962772;28;20055;-78
2024/03/18 11:26:54;;;;;;;8.30;4.60;;;;;;;11.94;79.94;96569.75;4986970;28;20062;-78
2024/03/18 11:29:22;;;;;;;4.18;3.65;;;;;;;11.94;78.92;96564.50;4971707;29;20055;-78
2024/03/18 11:31:52;;;;;;;5.82;3.92;;;;;;;11.94;79.96;96562.69;4971852;29;20055;-78